createdAt,value
2023-05-14T00:02:18.537Z,100852.03
2023-05-14T00:05:21.379Z,100829.38
2023-05-14T00:08:23.725Z,100842.12
2023-05-14T00:11:26.395Z,100813.75
2023-05-14T00:14:28.739Z,100816.53
2023-05-14T00:17:31.415Z,100816.66
2023-05-14T00:20:33.756Z,100829.75
2023-05-14T00:23:36.493Z,100828.31
2023-05-14T00:26:38.765Z,100833.72
2023-05-14T00:29:41.340Z,100823.78
2023-05-14T00:32:43.780Z,100808.28
2023-05-14T00:35:46.393Z,100812.47
2023-05-14T00:38:49.413Z,100806.00
2023-05-14T00:41:52.017Z,100804.50
2023-05-14T00:44:54.417Z,100804.19
2023-05-14T00:47:57.187Z,100797.50
2023-05-14T00:50:59.760Z,100806.41
2023-05-14T00:54:02.794Z,100823.13
2023-05-14T00:57:06.754Z,100808.03
2023-05-14T01:00:10.010Z,100787.47
2023-05-14T01:03:12.411Z,100802.22
2023-05-14T01:06:34.169Z,100772.09
2023-05-14T01:09:46.440Z,100800.78
2023-05-14T01:13:13.100Z,100794.44
2023-05-14T01:16:18.812Z,100790.03
2023-05-14T01:19:29.815Z,100792.00
2023-05-14T01:22:32.107Z,100761.38
2023-05-14T01:25:35.453Z,100770.94
2023-05-14T01:28:38.467Z,100761.38
2023-05-14T01:31:44.152Z,100777.56
2023-05-14T01:34:48.741Z,100784.25
2023-05-14T01:37:53.490Z,100750.19
2023-05-14T01:40:57.489Z,100768.81
2023-05-14T01:44:00.151Z,100765.91
2023-05-14T01:47:02.474Z,100741.31
2023-05-14T01:50:05.514Z,100732.56
2023-05-14T01:53:07.901Z,100755.41
2023-05-14T01:56:10.603Z,100747.59
2023-05-14T01:59:12.990Z,100732.66
2023-05-14T02:02:15.884Z,100730.69
2023-05-14T02:05:18.909Z,100726.62
2023-05-14T02:08:21.750Z,100718.69
2023-05-14T02:11:24.434Z,100718.56
2023-05-14T02:14:27.040Z,100696.91
2023-05-14T02:17:29.798Z,100701.97
2023-05-14T02:20:32.393Z,100699.53
2023-05-14T02:23:41.552Z,100716.50
2023-05-14T02:26:45.050Z,100725.13
2023-05-14T02:29:47.619Z,100693.38
2023-05-14T02:32:50.538Z,100713.44
2023-05-14T02:35:52.951Z,100697.94
2023-05-14T02:38:55.599Z,100701.16
2023-05-14T02:41:58.053Z,100702.09
2023-05-14T02:45:00.790Z,100694.31
2023-05-14T02:48:03.207Z,100696.56
2023-05-14T02:51:06.281Z,100696.41
2023-05-14T02:54:08.670Z,100695.91
2023-05-14T02:57:11.264Z,100716.25
2023-05-14T03:00:13.849Z,100721.78
2023-05-14T03:03:18.874Z,100718.91
2023-05-14T03:06:22.166Z,100697.13
2023-05-14T03:09:25.006Z,100689.72
2023-05-14T03:12:27.415Z,100706.84
2023-05-14T03:15:30.068Z,100674.13
2023-05-14T03:18:33.457Z,100702.28
2023-05-14T03:21:36.114Z,100677.09
2023-05-14T03:24:40.335Z,100684.00
2023-05-14T03:27:42.944Z,100691.34
2023-05-14T03:30:45.527Z,100709.13
2023-05-14T03:33:48.185Z,100680.31
2023-05-14T03:36:50.651Z,100704.09
2023-05-14T03:39:53.221Z,100692.28
2023-05-14T03:42:56.105Z,100704.53
2023-05-14T03:45:58.881Z,100705.50
2023-05-14T03:49:01.646Z,100693.91
2023-05-14T03:52:04.756Z,100710.88
2023-05-14T03:55:07.488Z,100719.78
2023-05-14T03:58:14.237Z,100708.59
2023-05-14T04:01:16.849Z,100689.47
2023-05-14T04:04:19.549Z,100691.75
2023-05-14T04:07:22.029Z,100680.56
2023-05-14T04:10:24.886Z,100675.59
2023-05-14T04:13:28.904Z,100698.91
2023-05-14T04:16:31.578Z,100698.25
2023-05-14T04:19:33.907Z,100690.12
2023-05-14T04:22:36.609Z,100689.81
2023-05-14T04:25:38.909Z,100665.22
2023-05-14T04:28:41.502Z,100666.03
2023-05-14T04:31:44.726Z,100663.09
2023-05-14T04:34:47.483Z,100684.09
2023-05-14T04:37:49.769Z,100685.22
2023-05-14T04:40:52.331Z,100658.50
2023-05-14T04:43:56.596Z,100678.56
2023-05-14T04:46:59.181Z,100678.09
2023-05-14T04:50:01.635Z,100677.44
2023-05-14T04:53:04.389Z,100677.75
2023-05-14T04:56:06.898Z,100683.44
2023-05-14T04:59:09.559Z,100672.22
2023-05-14T05:02:11.858Z,100684.34
2023-05-14T05:05:14.515Z,100660.44
2023-05-14T05:08:16.894Z,100652.97
2023-05-14T05:11:19.428Z,100669.62
2023-05-14T05:14:21.799Z,100655.13
2023-05-14T05:17:25.473Z,100649.75
2023-05-14T05:20:28.345Z,100654.44
2023-05-14T05:23:30.948Z,100651.03
2023-05-14T05:26:33.303Z,100645.19
2023-05-14T05:29:36.560Z,100641.94
2023-05-14T05:32:39.183Z,100656.06
2023-05-14T05:35:41.932Z,100667.78
2023-05-14T05:38:44.267Z,100655.22
2023-05-14T05:41:46.898Z,100640.59
2023-05-14T05:44:49.463Z,100670.22
2023-05-14T05:47:52.458Z,100654.47
2023-05-14T05:50:54.928Z,100643.09
2023-05-14T05:53:58.015Z,100649.34
2023-05-14T05:57:00.822Z,100663.91
2023-05-14T06:00:12.897Z,100663.91
2023-05-14T06:03:15.170Z,100644.22
2023-05-14T06:06:17.813Z,100647.94
2023-05-14T06:09:20.887Z,100657.81
2023-05-14T06:12:23.513Z,100660.13
2023-05-14T06:15:25.932Z,100654.75
2023-05-14T06:18:28.551Z,100666.81
2023-05-14T06:21:30.876Z,100674.72
2023-05-14T06:24:33.601Z,100678.44
2023-05-14T06:27:36.319Z,100651.94
2023-05-14T06:30:38.941Z,100653.38
2023-05-14T06:33:41.381Z,100662.75
2023-05-14T06:36:44.025Z,100665.22
2023-05-14T06:39:50.144Z,100679.94
2023-05-14T06:42:52.920Z,100658.72
2023-05-14T06:45:55.645Z,100669.00
2023-05-14T06:48:59.656Z,100642.47
2023-05-14T06:52:02.281Z,100658.91
2023-05-14T06:55:05.278Z,100656.63
2023-05-14T06:58:09.491Z,100650.87
2023-05-14T07:01:12.131Z,100648.62
2023-05-14T07:04:14.509Z,100620.13
2023-05-14T07:07:20.687Z,100623.94
2023-05-14T07:10:23.492Z,100641.53
2023-05-14T07:13:28.807Z,100606.50
2023-05-14T07:16:31.292Z,100615.03
2023-05-14T07:19:33.897Z,100634.25
2023-05-14T07:22:36.224Z,100617.06
2023-05-14T07:25:39.313Z,100624.38
2023-05-14T07:28:41.628Z,100625.06
2023-05-14T07:31:44.530Z,100601.59
2023-05-14T07:34:47.059Z,100616.00
2023-05-14T07:37:49.841Z,100609.44
2023-05-14T07:40:52.183Z,100604.16
2023-05-14T07:43:54.957Z,100615.44
2023-05-14T07:46:57.322Z,100600.25
2023-05-14T07:50:00.001Z,100619.72
2023-05-14T07:53:02.366Z,100615.91
2023-05-14T07:56:05.329Z,100611.78
2023-05-14T07:59:07.655Z,100601.16
2023-05-14T08:02:12.694Z,100594.94
2023-05-14T08:05:15.912Z,100596.66
2023-05-14T08:08:18.354Z,100592.41
2023-05-14T08:11:22.430Z,100565.56
2023-05-14T08:14:24.931Z,100585.72
2023-05-14T08:17:27.712Z,100584.12
2023-05-14T08:20:31.194Z,100580.88
2023-05-14T08:23:33.998Z,100569.00
2023-05-14T08:26:36.485Z,100571.44
2023-05-14T08:29:39.133Z,100565.91
2023-05-14T08:32:42.828Z,100548.16
2023-05-14T08:35:45.944Z,100571.44
2023-05-14T08:38:50.429Z,100562.69
2023-05-14T08:41:53.684Z,100551.63
2023-05-14T08:45:05.835Z,100559.91
2023-05-14T08:48:15.934Z,100554.81
2023-05-14T08:51:19.377Z,100537.53
2023-05-14T08:54:23.844Z,100543.88
2023-05-14T08:57:28.532Z,100532.19
2023-05-14T09:00:33.943Z,100532.19
2023-05-14T09:03:37.464Z,100541.75
2023-05-14T09:06:42.356Z,100539.38
2023-05-14T09:09:45.957Z,100518.41
2023-05-14T09:12:48.546Z,100532.19
2023-05-14T09:15:51.349Z,100538.22
2023-05-14T09:18:55.403Z,100533.81
2023-05-14T09:21:59.324Z,100531.50
2023-05-14T09:25:12.500Z,100528.19
2023-05-14T09:28:18.751Z,100527.84
2023-05-14T09:31:21.660Z,100525.06
2023-05-14T09:34:32.475Z,100517.56
2023-05-14T09:37:37.290Z,100515.59
2023-05-14T09:40:54.430Z,100512.38
2023-05-14T09:43:58.224Z,100508.91
2023-05-14T09:47:07.171Z,100512.03
2023-05-14T09:50:13.337Z,100502.81
2023-05-14T09:53:19.462Z,100492.66
2023-05-14T09:56:22.420Z,100470.91
2023-05-14T09:59:24.878Z,100474.16
2023-05-14T10:02:36.941Z,100491.75
2023-05-14T10:05:51.287Z,100471.72
2023-05-14T10:08:59.967Z,100477.22
2023-05-14T10:12:04.584Z,100449.69
2023-05-14T10:15:24.235Z,100472.25
2023-05-14T10:18:31.137Z,100451.00
2023-05-14T10:21:36.600Z,100361.25
2023-05-14T10:24:41.549Z,100413.37
2023-05-14T10:27:44.254Z,100383.00
2023-05-14T10:30:47.118Z,100397.34
2023-05-14T10:33:50.974Z,100383.16
2023-05-14T10:37:00.876Z,100393.25
2023-05-14T10:40:06.248Z,100398.00
2023-05-14T10:43:11.348Z,100409.87
2023-05-14T10:46:14.769Z,100423.34
2023-05-14T10:49:28.833Z,100434.34
2023-05-14T10:52:44.540Z,100424.69
2023-05-14T10:55:49.768Z,100417.03
2023-05-14T10:58:52.371Z,100403.09
2023-05-14T11:01:57.444Z,100387.56
2023-05-14T11:05:04.280Z,100413.59
2023-05-14T11:08:09.031Z,100410.84
2023-05-14T11:11:11.574Z,100411.84
2023-05-14T11:14:14.405Z,100407.50
2023-05-14T11:17:17.122Z,100374.22
2023-05-14T11:20:21.150Z,100379.84
2023-05-14T11:23:25.485Z,100371.91
2023-05-14T11:26:28.115Z,100376.06
2023-05-14T11:29:30.565Z,100386.31
2023-05-14T11:32:33.657Z,100369.88
2023-05-14T11:35:36.852Z,100391.91
2023-05-14T11:38:50.622Z,100365.47
2023-05-14T11:41:53.246Z,100368.25
2023-05-14T11:44:55.940Z,100344.56
2023-05-14T11:47:58.404Z,100372.63
2023-05-14T11:51:01.082Z,100382.72
2023-05-14T11:54:04.049Z,100364.59
2023-05-14T11:57:33.131Z,100383.00
2023-05-14T12:00:35.626Z,100378.59
2023-05-14T12:03:38.463Z,100350.53
2023-05-14T12:06:41.065Z,100367.44
2023-05-14T12:09:50.630Z,100357.97
2023-05-14T12:12:52.954Z,100347.16
2023-05-14T12:15:58.285Z,100330.34
2023-05-14T12:19:01.804Z,100355.09
2023-05-14T12:22:04.598Z,100329.47
2023-05-14T12:25:13.639Z,100318.75
2023-05-14T12:28:17.504Z,100329.75
2023-05-14T12:31:28.289Z,100335.28
2023-05-14T12:34:30.999Z,100328.84
2023-05-14T12:37:34.077Z,100302.41
2023-05-14T12:40:36.768Z,100319.41
2023-05-14T12:43:42.588Z,100300.81
2023-05-14T12:46:45.406Z,100299.47
2023-05-14T12:49:47.845Z,100320.25
2023-05-14T12:52:50.474Z,100306.13
2023-05-14T12:55:52.943Z,100295.06
2023-05-14T12:58:56.623Z,100295.06
2023-05-14T13:01:58.956Z,100305.53
2023-05-14T13:05:02.832Z,100296.88
2023-05-14T13:08:05.292Z,100294.47
2023-05-14T13:11:08.401Z,100268.81
2023-05-14T13:14:10.743Z,100270.87
2023-05-14T13:17:13.456Z,100280.97
2023-05-14T13:20:17.829Z,100263.09
2023-05-14T13:23:20.390Z,100272.66
2023-05-14T13:26:22.828Z,100253.44
2023-05-14T13:29:25.614Z,100243.09
2023-05-14T13:32:27.962Z,100237.56
2023-05-14T13:35:30.624Z,100236.16
2023-05-14T13:38:32.955Z,100249.03
2023-05-14T13:41:37.800Z,100218.69
2023-05-14T13:44:40.253Z,100235.91
2023-05-14T13:47:42.939Z,100235.91
2023-05-14T13:50:45.500Z,100211.44
2023-05-14T13:53:48.114Z,100222.06
2023-05-14T13:56:50.510Z,100225.19
2023-05-14T13:59:53.240Z,100215.44
2023-05-14T14:02:55.731Z,100194.84
2023-05-14T14:05:58.367Z,100203.69
2023-05-14T14:09:00.936Z,100211.00
2023-05-14T14:12:04.521Z,100201.91
2023-05-14T14:15:07.722Z,100180.69
2023-05-14T14:18:10.417Z,100193.28
2023-05-14T14:21:12.878Z,100193.59
2023-05-14T14:24:15.603Z,100193.59
2023-05-14T14:27:18.314Z,100165.28
2023-05-14T14:30:21.007Z,100180.22
2023-05-14T14:33:23.353Z,100193.53
2023-05-14T14:36:26.077Z,100204.59
2023-05-14T14:39:28.418Z,100197.44
2023-05-14T14:42:31.506Z,100208.06
2023-05-14T14:45:33.847Z,100184.69
2023-05-14T14:48:41.224Z,100187.09
2023-05-14T14:51:43.786Z,100180.75
2023-05-14T14:54:46.376Z,100179.97
2023-05-14T14:57:48.733Z,100153.53
2023-05-14T15:00:53.720Z,100190.13
2023-05-14T15:03:56.200Z,100160.56
2023-05-14T15:06:59.120Z,100147.81
2023-05-14T15:10:01.652Z,100141.87
2023-05-14T15:13:05.936Z,100150.31
2023-05-14T15:16:08.320Z,100123.72
2023-05-14T15:19:10.934Z,100151.28
2023-05-14T15:22:13.508Z,100146.91
2023-05-14T15:25:16.188Z,100139.00
2023-05-14T15:28:18.519Z,100134.53
2023-05-14T15:31:21.424Z,100112.47
2023-05-14T15:34:23.846Z,100117.09
2023-05-14T15:37:27.023Z,100115.25
2023-05-14T15:40:29.600Z,100128.00
2023-05-14T15:43:32.297Z,100119.63
2023-05-14T15:46:34.742Z,100133.78
2023-05-14T15:49:37.374Z,100131.81
2023-05-14T15:52:40.104Z,100132.97
2023-05-14T15:55:42.857Z,100124.13
2023-05-14T15:58:45.167Z,100078.72
2023-05-14T16:01:48.001Z,100080.13
2023-05-14T16:04:50.702Z,100063.56
2023-05-14T16:07:53.101Z,100081.34
2023-05-14T16:10:55.760Z,100081.66
2023-05-14T16:13:58.508Z,100053.66
2023-05-14T16:17:02.152Z,100078.09
2023-05-14T16:20:05.373Z,100077.28
2023-05-14T16:23:07.943Z,100080.06
2023-05-14T16:26:11.039Z,100068.38
2023-05-14T16:29:13.671Z,100086.50
2023-05-14T16:32:16.325Z,100070.06
2023-05-14T16:35:19.048Z,100069.19
2023-05-14T16:38:21.547Z,100081.34
2023-05-14T16:41:24.191Z,100081.22
2023-05-14T16:44:26.545Z,100076.50
2023-05-14T16:47:30.519Z,100070.19
2023-05-14T16:50:32.904Z,100046.06
2023-05-14T16:53:35.796Z,100035.50
2023-05-14T16:56:38.250Z,100032.09
2023-05-14T16:59:41.108Z,100040.94
2023-05-14T17:02:44.085Z,100042.56
2023-05-14T17:05:46.767Z,100041.84
2023-05-14T17:08:49.117Z,100017.75
2023-05-14T17:11:51.787Z,100027.56
2023-05-14T17:14:54.135Z,100037.91
2023-05-14T17:17:56.866Z,100015.53
2023-05-14T17:20:59.356Z,100016.53
2023-05-14T17:24:01.972Z,100003.63
2023-05-14T17:27:04.961Z,100010.28
2023-05-14T17:30:08.524Z,100017.44
2023-05-14T17:33:11.541Z,100014.94
2023-05-14T17:36:14.289Z,99998.44
2023-05-14T17:39:16.648Z,100011.00
2023-05-14T17:42:19.321Z,99994.44
2023-05-14T17:45:21.929Z,99974.47
2023-05-14T17:48:24.787Z,99975.19
2023-05-14T17:51:27.146Z,99980.44
2023-05-14T17:54:29.784Z,99969.22
2023-05-14T17:57:32.153Z,99972.44
2023-05-14T18:00:35.335Z,99952.81
2023-05-14T18:03:38.252Z,99967.78
2023-05-14T18:06:40.741Z,99957.47
2023-05-14T18:09:43.363Z,99944.16
2023-05-14T18:12:45.948Z,99960.66
2023-05-14T18:15:48.626Z,99953.97
2023-05-14T18:18:50.978Z,99942.94
2023-05-14T18:21:55.528Z,99925.28
2023-05-14T18:24:57.968Z,99938.84
2023-05-14T18:28:00.732Z,99957.19
2023-05-14T18:31:04.372Z,99959.69
2023-05-14T18:34:06.978Z,99968.25
2023-05-14T18:37:09.779Z,99977.69
2023-05-14T18:40:16.901Z,99968.53
2023-05-14T18:43:20.818Z,99979.47
2023-05-14T18:46:23.990Z,99951.47
2023-05-14T18:49:26.414Z,99970.31
2023-05-14T18:52:29.145Z,99972.31
2023-05-14T18:55:31.731Z,99975.56
2023-05-14T18:58:34.431Z,99952.38
2023-05-14T19:01:36.909Z,99949.44
2023-05-14T19:04:51.179Z,99974.88
2023-05-14T19:07:54.519Z,99958.06
2023-05-14T19:10:57.102Z,99968.66
2023-05-14T19:13:59.666Z,99967.84
2023-05-14T19:17:02.780Z,99940.34
2023-05-14T19:20:06.479Z,99944.28
2023-05-14T19:23:08.947Z,99931.87
2023-05-14T19:26:11.445Z,99958.75
2023-05-14T19:29:14.325Z,99956.78
2023-05-14T19:32:16.658Z,99929.22
2023-05-14T19:35:19.371Z,99926.88
2023-05-14T19:38:22.060Z,99930.47
2023-05-14T19:41:24.668Z,99922.59
2023-05-14T19:44:27.024Z,99924.94
2023-05-14T19:47:29.791Z,99934.75
2023-05-14T19:50:32.193Z,99916.13
2023-05-14T19:53:34.764Z,99913.00
2023-05-14T19:56:38.319Z,99928.78
2023-05-14T19:59:41.445Z,99939.84
2023-05-14T20:02:44.049Z,99937.09
2023-05-14T20:05:46.956Z,99935.94
2023-05-14T20:08:49.481Z,99910.69
2023-05-14T20:11:52.100Z,99919.00
2023-05-14T20:14:54.600Z,99924.06
2023-05-14T20:17:57.891Z,99890.91
2023-05-14T20:21:00.666Z,99919.09
2023-05-14T20:24:03.456Z,99915.16
2023-05-14T20:27:06.108Z,99893.03
2023-05-14T20:30:09.165Z,99912.41
2023-05-14T20:33:13.392Z,99892.78
2023-05-14T20:36:16.377Z,99912.03
2023-05-14T20:39:18.831Z,99903.38
2023-05-14T20:42:21.467Z,99877.13
2023-05-14T20:45:24.037Z,99888.69
2023-05-14T20:48:26.962Z,99866.06
2023-05-14T20:51:29.265Z,99860.44
2023-05-14T20:54:31.904Z,99842.06
2023-05-14T20:57:34.373Z,99851.69
2023-05-14T21:00:37.074Z,99860.62
2023-05-14T21:03:39.469Z,99870.16
2023-05-14T21:06:42.304Z,99853.59
2023-05-14T21:09:46.518Z,99859.91
2023-05-14T21:12:49.145Z,99848.87
2023-05-14T21:15:51.622Z,99850.44
2023-05-14T21:18:54.380Z,99832.00
2023-05-14T21:21:56.737Z,99854.44
2023-05-14T21:24:59.417Z,99834.44
2023-05-14T21:28:01.746Z,99833.28
2023-05-14T21:31:04.354Z,99821.88
2023-05-14T21:34:06.730Z,99815.97
2023-05-14T21:37:09.373Z,99836.34
2023-05-14T21:40:12.670Z,99821.38
2023-05-14T21:43:15.471Z,99806.19
2023-05-14T21:46:18.512Z,99787.63
2023-05-14T21:49:21.094Z,99790.38
2023-05-14T21:52:23.409Z,99767.34
2023-05-14T21:55:27.775Z,99779.34
2023-05-14T21:58:30.461Z,99763.69
2023-05-14T22:01:35.635Z,99764.03
2023-05-14T22:04:44.877Z,99759.66
2023-05-14T22:07:47.659Z,99759.22
2023-05-14T22:10:50.380Z,99767.22
2023-05-14T22:13:52.690Z,99758.94
2023-05-14T22:16:55.559Z,99759.44
2023-05-14T22:19:57.971Z,99774.81
2023-05-14T22:23:03.028Z,99804.28
2023-05-14T22:26:05.430Z,99775.28
2023-05-14T22:29:08.071Z,99792.84
2023-05-14T22:32:10.460Z,99772.06
2023-05-14T22:35:13.137Z,99770.53
2023-05-14T22:38:15.639Z,99783.84
2023-05-14T22:41:18.246Z,99782.69
2023-05-14T22:44:21.670Z,99781.09
2023-05-14T22:47:25.273Z,99759.13
2023-05-14T22:50:27.604Z,99766.25
2023-05-14T22:53:30.247Z,99784.66
2023-05-14T22:56:32.586Z,99794.56
2023-05-14T22:59:35.213Z,99772.22
2023-05-14T23:02:37.557Z,99784.31
2023-05-14T23:05:40.215Z,99780.75
2023-05-14T23:08:42.512Z,99779.13
2023-05-14T23:11:46.097Z,99778.31
2023-05-14T23:14:48.394Z,99761.19
2023-05-14T23:17:51.087Z,99751.56
2023-05-14T23:20:53.547Z,99774.03
2023-05-14T23:23:56.144Z,99759.69
2023-05-14T23:26:58.516Z,99771.28
2023-05-14T23:30:01.194Z,99727.22
2023-05-14T23:33:03.708Z,99739.28
2023-05-14T23:36:06.980Z,99735.72
2023-05-14T23:39:09.503Z,99709.50
2023-05-14T23:42:12.078Z,99728.25
2023-05-14T23:45:14.408Z,99732.16
2023-05-14T23:48:17.035Z,99710.66
2023-05-14T23:51:19.389Z,99705.94
2023-05-14T23:54:22.002Z,99721.19
2023-05-14T23:57:24.406Z,99688.63
